createdAt,value
2023-02-25T00:02:38.910Z,3.19
2023-02-25T00:05:44.085Z,3.14
2023-02-25T00:08:50.363Z,3.13
2023-02-25T00:11:54.850Z,3.05
2023-02-25T00:14:59.341Z,3.37
2023-02-25T00:18:03.231Z,3.36
2023-02-25T00:21:07.538Z,3.45
2023-02-25T00:24:16.991Z,3.38
2023-02-25T00:27:18.885Z,3.26
2023-02-25T00:30:23.699Z,3.28
2023-02-25T00:33:28.334Z,3.41
2023-02-25T00:36:30.195Z,3.48
2023-02-25T00:39:22.679Z,3.54
2023-02-25T00:42:28.473Z,3.57
2023-02-25T00:45:32.247Z,3.52
2023-02-25T00:48:37.088Z,3.58
2023-02-25T00:51:43.754Z,3.38
2023-02-25T00:54:48.595Z,3.26
2023-02-25T00:57:53.643Z,3.24
2023-02-25T01:05:09.187Z,3.16
2023-02-25T01:11:40.798Z,3.06
2023-02-25T01:14:51.376Z,3.04
2023-02-25T01:21:36.053Z,3.12
2023-02-25T01:24:42.468Z,3.04
2023-02-25T01:27:47.194Z,3.17
2023-02-25T01:30:53.212Z,3.18
2023-02-25T01:33:59.202Z,3.06
2023-02-25T01:37:03.461Z,3.05
2023-02-25T01:40:08.784Z,3.14
2023-02-25T01:43:13.966Z,3.25
2023-02-25T01:46:18.642Z,3.22
2023-02-25T01:49:43.364Z,3.37
2023-02-25T01:52:48.916Z,3.38
2023-02-25T01:55:53.925Z,3.33
2023-02-25T01:58:57.605Z,3.33
2023-02-25T02:02:02.309Z,3.43
2023-02-25T02:05:07.309Z,3.40
2023-02-25T02:08:12.656Z,3.26
2023-02-25T02:11:18.614Z,3.33
2023-02-25T02:14:25.340Z,3.24
2023-02-25T02:17:36.234Z,3.33
2023-02-25T02:20:47.344Z,3.38
2023-02-25T02:24:11.091Z,3.41
2023-02-25T02:27:37.409Z,3.42
2023-02-25T02:31:16.648Z,3.30
2023-02-25T02:34:34.487Z,3.32
2023-02-25T02:37:48.349Z,3.43
2023-02-25T02:41:13.149Z,3.61
2023-02-25T02:44:25.384Z,3.72
2023-02-25T02:47:47.733Z,3.78
2023-02-25T02:50:57.297Z,3.70
2023-02-25T02:54:09.259Z,3.65
2023-02-25T02:57:14.502Z,3.71
2023-02-25T03:00:24.684Z,3.74
2023-02-25T03:03:35.822Z,3.76
2023-02-25T03:06:43.852Z,4.00
2023-02-25T03:09:59.469Z,3.98
2023-02-25T03:13:04.243Z,3.91
2023-02-25T03:16:09.790Z,3.69
2023-02-25T03:19:33.134Z,3.79
2023-02-25T03:22:43.883Z,3.94
2023-02-25T03:25:53.875Z,3.98
2023-02-25T03:28:59.634Z,4.02
2023-02-25T03:32:11.575Z,3.96
2023-02-25T03:35:16.392Z,3.89
2023-02-25T03:38:26.437Z,3.83
2023-02-25T03:41:32.149Z,3.95
2023-02-25T03:44:40.470Z,3.92
2023-02-25T03:47:47.236Z,3.88
2023-02-25T03:51:00.352Z,3.91
2023-02-25T03:54:06.249Z,3.91
2023-02-25T03:57:11.261Z,3.84
2023-02-25T04:00:19.218Z,3.85
2023-02-25T04:03:24.313Z,3.98
2023-02-25T04:06:21.540Z,4.03
2023-02-25T04:09:28.265Z,4.11
2023-02-25T04:12:34.396Z,4.15
2023-02-25T04:15:38.638Z,4.17
2023-02-25T04:18:44.607Z,4.11
2023-02-25T04:21:51.533Z,4.20
2023-02-25T04:24:56.010Z,4.25
2023-02-25T04:27:59.768Z,4.22
2023-02-25T04:30:59.340Z,4.18
2023-02-25T04:34:04.404Z,4.30
2023-02-25T04:37:12.304Z,4.33
2023-02-25T04:40:17.928Z,4.38
2023-02-25T04:43:23.557Z,4.47
2023-02-25T04:46:28.792Z,4.53
2023-02-25T04:49:34.703Z,4.47
2023-02-25T04:52:38.000Z,4.47
2023-02-25T04:55:43.797Z,4.43
2023-02-25T04:58:48.960Z,4.38
2023-02-25T05:01:55.507Z,4.62
2023-02-25T05:05:00.862Z,4.49
2023-02-25T05:11:10.452Z,4.40
2023-02-25T05:14:15.569Z,4.48
2023-02-25T05:17:23.017Z,4.58
2023-02-25T05:20:28.115Z,4.48
2023-02-25T05:23:33.956Z,4.41
2023-02-25T05:26:39.203Z,4.50
2023-02-25T05:29:43.916Z,4.38
2023-02-25T05:32:48.333Z,4.33
2023-02-25T05:35:54.442Z,4.31
2023-02-25T05:38:59.986Z,4.38
2023-02-25T05:42:04.332Z,4.30
2023-02-25T05:45:09.705Z,4.37
2023-02-25T05:48:14.785Z,4.34
2023-02-25T05:51:20.531Z,4.46
2023-02-25T05:54:24.782Z,4.44
2023-02-25T05:57:30.465Z,4.45
2023-02-25T06:00:35.286Z,4.51
2023-02-25T06:03:40.662Z,4.45
2023-02-25T06:06:45.976Z,4.47
2023-02-25T06:09:51.253Z,4.37
2023-02-25T06:12:56.490Z,4.56
2023-02-25T06:16:00.781Z,4.61
2023-02-25T06:19:05.593Z,4.72
2023-02-25T06:22:10.141Z,4.64
2023-02-25T06:25:16.000Z,4.68
2023-02-25T06:28:20.669Z,4.55
2023-02-25T06:31:26.937Z,4.57
2023-02-25T06:34:31.462Z,4.64
2023-02-25T06:37:35.583Z,4.73
2023-02-25T06:40:40.987Z,4.68
2023-02-25T06:43:46.118Z,4.68
2023-02-25T06:46:52.152Z,4.64
2023-02-25T06:49:58.995Z,4.63
2023-02-25T06:52:57.414Z,4.75
2023-02-25T06:56:02.076Z,4.74
2023-02-25T06:59:06.525Z,4.56
2023-02-25T07:02:11.452Z,4.78
2023-02-25T07:05:16.753Z,4.77
2023-02-25T07:08:21.817Z,4.64
2023-02-25T07:11:36.232Z,4.70
2023-02-25T07:14:41.616Z,4.73
2023-02-25T07:17:46.100Z,4.71
2023-02-25T07:20:50.914Z,4.77
2023-02-25T07:23:56.341Z,4.77
2023-02-25T07:27:04.213Z,4.85
2023-02-25T07:30:08.546Z,4.98
2023-02-25T07:33:13.468Z,5.11
2023-02-25T07:36:12.057Z,5.12
2023-02-25T07:39:03.813Z,5.12
2023-02-25T07:42:07.729Z,5.04
2023-02-25T07:45:13.367Z,5.09
2023-02-25T07:48:17.498Z,5.08
2023-02-25T07:51:29.842Z,5.07
2023-02-25T07:54:34.598Z,5.18
2023-02-25T07:57:39.503Z,5.31
2023-02-25T08:00:45.343Z,5.48
2023-02-25T08:03:49.493Z,5.58
2023-02-25T08:06:55.134Z,5.77
2023-02-25T08:09:59.172Z,5.93
2023-02-25T08:13:04.325Z,6.08
2023-02-25T08:16:09.391Z,6.13
2023-02-25T08:19:07.978Z,6.22
2023-02-25T08:21:55.000Z,6.32
2023-02-25T08:24:49.400Z,6.21
2023-02-25T08:27:35.521Z,6.15
2023-02-25T08:30:31.374Z,6.18
2023-02-25T08:33:24.244Z,6.32
2023-02-25T08:36:30.381Z,6.44
2023-02-25T08:39:35.295Z,6.50
2023-02-25T08:42:38.547Z,6.40
2023-02-25T08:45:43.735Z,6.50
2023-02-25T08:48:49.640Z,6.53
2023-02-25T08:51:54.628Z,6.61
2023-02-25T08:54:59.645Z,6.70
2023-02-25T08:58:03.188Z,6.94
2023-02-25T09:01:08.443Z,6.98
2023-02-25T09:04:13.084Z,7.08
2023-02-25T09:07:20.868Z,7.12
2023-02-25T09:10:26.863Z,7.04
2023-02-25T09:13:34.471Z,7.09
2023-02-25T09:16:41.713Z,7.10
2023-02-25T09:19:46.748Z,6.99
2023-02-25T09:22:52.723Z,6.98
2023-02-25T09:25:51.049Z,6.94
2023-02-25T09:28:57.465Z,7.02
2023-02-25T09:32:01.777Z,7.16
2023-02-25T09:35:09.809Z,7.30
2023-02-25T09:38:30.634Z,7.34
2023-02-25T09:41:56.096Z,7.15
2023-02-25T09:45:06.538Z,7.36
2023-02-25T09:48:13.663Z,7.55
2023-02-25T09:51:15.303Z,7.61
2023-02-25T09:54:51.402Z,7.76
2023-02-25T09:57:56.514Z,7.92
2023-02-25T10:01:04.583Z,8.38
2023-02-25T10:04:18.633Z,8.58
2023-02-25T10:07:30.066Z,8.60
2023-02-25T10:10:58.510Z,8.66
2023-02-25T10:14:26.887Z,8.76
2023-02-25T10:17:40.771Z,8.80
2023-02-25T10:20:59.562Z,8.86
2023-02-25T10:24:04.073Z,8.85
2023-02-25T10:27:11.071Z,9.04
2023-02-25T10:30:26.268Z,9.16
2023-02-25T10:33:35.049Z,9.37
2023-02-25T10:36:46.298Z,9.58
2023-02-25T10:39:53.090Z,9.75
2023-02-25T10:43:04.424Z,10.02
2023-02-25T10:46:23.756Z,10.06
2023-02-25T10:49:32.720Z,10.26
2023-02-25T10:52:36.409Z,10.46
2023-02-25T10:55:57.986Z,10.66
2023-02-25T10:59:20.420Z,10.83
2023-02-25T11:02:39.479Z,10.85
2023-02-25T11:05:54.842Z,10.87
2023-02-25T11:08:59.833Z,10.81
2023-02-25T11:12:30.312Z,10.90
2023-02-25T11:15:45.656Z,10.92
2023-02-25T11:18:47.238Z,10.99
2023-02-25T11:21:53.863Z,11.04
2023-02-25T11:24:58.586Z,10.85
2023-02-25T11:28:08.137Z,10.77
2023-02-25T11:31:36.468Z,10.84
2023-02-25T11:34:42.530Z,10.81
2023-02-25T11:37:57.690Z,10.84
2023-02-25T11:41:03.996Z,11.07
2023-02-25T11:44:08.721Z,11.25
2023-02-25T11:47:23.760Z,11.38
2023-02-25T11:50:53.802Z,11.32
2023-02-25T11:54:02.163Z,11.20
2023-02-25T11:57:20.014Z,11.33
2023-02-25T12:01:01.969Z,11.40
2023-02-25T12:04:23.263Z,11.44
2023-02-25T12:08:05.110Z,11.51
2023-02-25T12:11:33.012Z,11.55
2023-02-25T12:15:02.696Z,11.46
2023-02-25T12:18:32.829Z,11.58
2023-02-25T12:22:02.708Z,11.62
2023-02-25T12:25:28.567Z,11.51
2023-02-25T12:28:54.807Z,11.48
2023-02-25T12:32:20.963Z,11.47
2023-02-25T12:35:50.232Z,11.48
2023-02-25T12:39:33.463Z,11.47
2023-02-25T12:43:01.303Z,11.65
2023-02-25T12:46:04.807Z,11.68
2023-02-25T12:49:33.860Z,11.84
2023-02-25T12:52:49.935Z,12.06
2023-02-25T12:56:10.815Z,12.23
2023-02-25T12:59:46.784Z,12.13
2023-02-25T13:03:09.301Z,12.08
2023-02-25T13:06:36.602Z,12.03
2023-02-25T13:10:09.586Z,12.14
2023-02-25T13:13:35.339Z,12.17
2023-02-25T13:16:59.898Z,12.33
2023-02-25T13:20:09.171Z,12.30
2023-02-25T13:23:35.061Z,12.28
2023-02-25T13:27:03.942Z,12.16
2023-02-25T13:30:31.760Z,11.93
2023-02-25T13:34:05.257Z,11.93
2023-02-25T13:37:17.055Z,12.00
2023-02-25T13:40:43.880Z,11.89
2023-02-25T13:44:20.764Z,11.84
2023-02-25T13:47:32.838Z,11.98
2023-02-25T13:50:50.144Z,11.96
2023-02-25T13:54:26.020Z,11.96
2023-02-25T13:57:57.239Z,11.81
2023-02-25T14:01:22.634Z,11.89
2023-02-25T14:04:30.779Z,11.88
2023-02-25T14:07:54.295Z,11.89
2023-02-25T14:11:10.573Z,11.85
2023-02-25T14:14:35.384Z,11.81
2023-02-25T14:18:18.015Z,11.93
2023-02-25T14:21:57.887Z,11.96
2023-02-25T14:25:21.684Z,11.91
2023-02-25T14:28:33.349Z,11.66
2023-02-25T14:31:56.138Z,11.88
2023-02-25T14:35:23.259Z,11.50
2023-02-25T14:38:42.819Z,11.54
2023-02-25T14:41:59.641Z,11.35
2023-02-25T14:45:11.049Z,11.43
2023-02-25T14:48:18.618Z,11.35
2023-02-25T14:51:49.061Z,11.41
2023-02-25T14:55:01.890Z,11.53
2023-02-25T14:58:32.843Z,11.48
2023-02-25T15:01:56.075Z,11.42
2023-02-25T15:05:16.677Z,11.40
2023-02-25T15:08:34.425Z,11.32
2023-02-25T15:11:53.150Z,10.85
2023-02-25T15:15:04.062Z,10.70
2023-02-25T15:18:36.479Z,10.67
2023-02-25T15:22:01.668Z,10.73
2023-02-25T15:25:24.938Z,10.77
2023-02-25T15:28:47.276Z,10.80
2023-02-25T15:31:52.813Z,10.73
2023-02-25T15:35:12.202Z,10.87
2023-02-25T15:38:21.071Z,10.83
2023-02-25T15:41:53.459Z,10.73
2023-02-25T15:44:58.926Z,10.61
2023-02-25T15:48:04.764Z,10.58
2023-02-25T15:51:09.015Z,10.49
2023-02-25T15:54:15.925Z,10.34
2023-02-25T15:57:26.857Z,10.32
2023-02-25T16:01:02.723Z,10.22
2023-02-25T16:04:07.155Z,10.07
2023-02-25T16:07:11.992Z,10.10
2023-02-25T16:10:36.133Z,10.04
2023-02-25T16:13:48.668Z,10.00
2023-02-25T16:16:57.530Z,10.02
2023-02-25T16:20:12.535Z,9.89
2023-02-25T16:23:17.123Z,9.72
2023-02-25T16:26:46.502Z,9.73
2023-02-25T16:30:05.464Z,9.65
2023-02-25T16:33:25.949Z,9.60
2023-02-25T16:36:33.987Z,9.66
2023-02-25T16:39:39.876Z,9.68
2023-02-25T16:42:45.973Z,9.64
2023-02-25T16:46:11.535Z,9.61
2023-02-25T16:49:09.465Z,9.66
2023-02-25T16:52:13.915Z,9.66
2023-02-25T16:55:19.551Z,9.50
2023-02-25T16:58:37.059Z,9.41
2023-02-25T17:01:43.497Z,9.48
2023-02-25T17:04:50.766Z,9.47
2023-02-25T17:07:56.125Z,9.61
2023-02-25T17:11:04.661Z,9.60
2023-02-25T17:14:10.953Z,9.67
2023-02-25T17:17:14.982Z,9.23
2023-02-25T17:20:22.353Z,9.16
2023-02-25T17:23:29.079Z,9.14
2023-02-25T17:26:33.501Z,9.20
2023-02-25T17:29:47.220Z,9.17
2023-02-25T17:32:51.743Z,9.24
2023-02-25T17:35:55.912Z,9.06
2023-02-25T17:39:00.538Z,9.04
2023-02-25T17:42:05.232Z,9.00
2023-02-25T17:45:10.868Z,9.00
2023-02-25T17:48:16.051Z,9.01
2023-02-25T17:51:21.582Z,9.05
2023-02-25T17:54:31.014Z,9.00
2023-02-25T17:57:36.713Z,9.09
2023-02-25T18:00:46.763Z,9.03
2023-02-25T18:04:00.175Z,9.06
2023-02-25T18:07:06.225Z,9.15
2023-02-25T18:10:11.880Z,9.18
2023-02-25T18:13:18.226Z,9.19
2023-02-25T18:16:27.412Z,9.29
2023-02-25T18:19:50.436Z,9.19
2023-02-25T18:22:57.603Z,9.34
2023-02-25T18:26:07.452Z,9.42
2023-02-25T18:29:11.585Z,9.56
2023-02-25T18:32:17.072Z,9.71
2023-02-25T18:35:23.056Z,9.88
2023-02-25T18:38:32.233Z,9.91
2023-02-25T18:41:36.975Z,10.12
2023-02-25T18:44:40.659Z,10.25
2023-02-25T18:47:44.035Z,10.32
2023-02-25T18:50:51.069Z,10.37
2023-02-25T18:53:54.850Z,10.43
2023-02-25T18:56:58.887Z,10.37
2023-02-25T19:00:04.220Z,10.36
2023-02-25T19:03:11.647Z,10.44
2023-02-25T19:06:16.203Z,10.39
2023-02-25T19:09:20.064Z,10.38
2023-02-25T19:12:27.469Z,10.37
2023-02-25T19:15:34.637Z,10.52
2023-02-25T19:18:38.642Z,10.52
2023-02-25T19:21:44.824Z,10.46
2023-02-25T19:24:49.899Z,10.36
2023-02-25T19:27:54.640Z,10.30
2023-02-25T19:30:59.830Z,10.46
2023-02-25T19:34:04.458Z,10.59
2023-02-25T19:37:09.280Z,10.59
2023-02-25T19:40:16.143Z,10.59
2023-02-25T19:43:20.805Z,10.71
2023-02-25T19:46:26.324Z,10.75
2023-02-25T19:49:30.844Z,10.77
2023-02-25T19:52:35.738Z,10.87
2023-02-25T19:55:39.551Z,11.00
2023-02-25T19:58:44.753Z,10.84
2023-02-25T20:01:48.974Z,10.92
2023-02-25T20:04:54.387Z,10.73
2023-02-25T20:07:59.203Z,10.71
2023-02-25T20:11:03.113Z,10.73
2023-02-25T20:14:07.852Z,10.70
2023-02-25T20:17:12.199Z,10.54
2023-02-25T20:20:16.736Z,10.73
2023-02-25T20:23:20.969Z,11.00
2023-02-25T20:26:30.206Z,10.87
2023-02-25T20:29:35.140Z,10.84
2023-02-25T20:32:39.608Z,11.02
2023-02-25T20:35:44.944Z,11.21
2023-02-25T20:38:50.633Z,11.18
2023-02-25T20:41:57.256Z,11.37
2023-02-25T20:45:02.944Z,11.46
2023-02-25T20:48:07.908Z,11.34
2023-02-25T20:51:13.570Z,11.33
2023-02-25T20:54:18.178Z,11.21
2023-02-25T20:57:26.248Z,11.28
2023-02-25T21:00:33.068Z,11.42
2023-02-25T21:03:38.172Z,11.63
2023-02-25T21:06:44.144Z,11.33
2023-02-25T21:09:49.085Z,11.31
2023-02-25T21:12:54.299Z,11.21
2023-02-25T21:15:59.422Z,11.14
2023-02-25T21:19:05.452Z,11.15
2023-02-25T21:22:09.993Z,10.99
2023-02-25T21:25:16.260Z,11.08
2023-02-25T21:28:20.082Z,11.26
2023-02-25T21:31:28.174Z,11.29
2023-02-25T21:34:33.064Z,11.15
2023-02-25T21:37:39.904Z,11.14
2023-02-25T21:40:44.256Z,11.05
2023-02-25T21:43:49.191Z,10.96
2023-02-25T21:46:55.477Z,10.99
2023-02-25T21:50:02.185Z,11.08
2023-02-25T21:53:07.580Z,11.16
2023-02-25T21:56:16.615Z,11.05
2023-02-25T21:59:21.020Z,11.05
2023-02-25T22:02:25.800Z,11.10
2023-02-25T22:05:30.950Z,11.19
2023-02-25T22:08:35.186Z,11.08
2023-02-25T22:11:42.540Z,11.05
2023-02-25T22:14:46.805Z,10.97
2023-02-25T22:17:51.189Z,10.91
2023-02-25T22:20:57.224Z,10.93
2023-02-25T22:24:02.864Z,10.91
2023-02-25T22:27:07.924Z,10.96
2023-02-25T22:30:13.437Z,10.86
2023-02-25T22:33:19.569Z,10.74
2023-02-25T22:36:25.257Z,10.79
2023-02-25T22:39:29.361Z,10.67
2023-02-25T22:42:33.597Z,10.56
2023-02-25T22:45:39.476Z,10.66
2023-02-25T22:48:44.444Z,10.75
2023-02-25T22:51:52.616Z,10.56
2023-02-25T22:54:57.639Z,10.62
2023-02-25T22:58:02.794Z,10.51
2023-02-25T23:01:07.162Z,10.28
2023-02-25T23:04:15.104Z,10.29
2023-02-25T23:07:21.041Z,10.32
2023-02-25T23:10:26.610Z,10.27
2023-02-25T23:13:30.654Z,10.23
2023-02-25T23:16:38.558Z,10.15
2023-02-25T23:19:42.638Z,10.17
2023-02-25T23:22:48.776Z,10.21
2023-02-25T23:25:55.358Z,10.29
2023-02-25T23:29:00.714Z,10.20
2023-02-25T23:32:06.239Z,10.14
2023-02-25T23:35:10.756Z,10.01
2023-02-25T23:38:15.779Z,10.01
2023-02-25T23:41:20.828Z,10.01
2023-02-25T23:44:19.909Z,10.02
2023-02-25T23:47:06.275Z,9.99
2023-02-25T23:49:57.774Z,9.82
2023-02-25T23:52:50.837Z,9.81
2023-02-25T23:55:54.933Z,9.75
2023-02-25T23:59:03.917Z,9.72
